createdAt,value
2023-01-09T00:01:46.176Z,99727.75
2023-01-09T00:04:16.467Z,99709.81
2023-01-09T00:06:46.731Z,99705.94
2023-01-09T00:09:15.080Z,99689.44
2023-01-09T00:11:43.165Z,99678.47
2023-01-09T00:14:11.465Z,99667.09
2023-01-09T00:16:39.666Z,99659.16
2023-01-09T00:19:09.255Z,99673.16
2023-01-09T00:21:38.344Z,99660.66
2023-01-09T00:24:07.649Z,99651.97
2023-01-09T00:26:36.045Z,99653.06
2023-01-09T00:29:07.233Z,99649.38
2023-01-09T00:31:35.253Z,99644.16
2023-01-09T00:34:13.111Z,99639.00
2023-01-09T00:36:41.192Z,99625.53
2023-01-09T00:39:09.543Z,99618.06
2023-01-09T00:41:42.232Z,99611.00
2023-01-09T00:44:17.460Z,99604.16
2023-01-09T00:46:48.200Z,99594.25
2023-01-09T00:49:17.460Z,99586.34
2023-01-09T00:51:45.593Z,99585.03
2023-01-09T00:54:18.068Z,99588.91
2023-01-09T00:56:46.606Z,99594.94
2023-01-09T00:59:15.024Z,99587.31
2023-01-09T01:01:43.260Z,99592.84
2023-01-09T01:04:30.178Z,99597.53
2023-01-09T01:07:16.857Z,99601.78
2023-01-09T01:09:45.315Z,99605.25
2023-01-09T01:12:13.419Z,99594.56
2023-01-09T01:14:41.868Z,99594.63
2023-01-09T01:17:09.848Z,99590.31
2023-01-09T01:19:39.569Z,99589.78
2023-01-09T01:22:07.621Z,99588.66
2023-01-09T01:24:36.617Z,99586.06
2023-01-09T01:27:04.679Z,99591.59
2023-01-09T01:29:33.090Z,99586.78
2023-01-09T01:32:01.156Z,99587.88
2023-01-09T01:34:30.222Z,99591.34
2023-01-09T01:36:58.113Z,99580.31
2023-01-09T01:39:26.468Z,99585.75
2023-01-09T01:41:54.606Z,99579.22
2023-01-09T01:45:01.335Z,99581.06
2023-01-09T01:47:57.973Z,99587.03
2023-01-09T01:50:53.592Z,99585.34
2023-01-09T01:53:39.623Z,99586.97
2023-01-09T01:56:25.032Z,99599.53
2023-01-09T01:58:58.444Z,99601.25
2023-01-09T02:01:27.722Z,99591.16
2023-01-09T02:03:58.683Z,99589.72
2023-01-09T02:06:27.792Z,99587.63
2023-01-09T02:08:56.462Z,99586.19
2023-01-09T02:11:25.445Z,99590.84
2023-01-09T02:13:53.632Z,99592.28
2023-01-09T02:16:43.036Z,99586.28
2023-01-09T02:19:28.203Z,99573.56
2023-01-09T02:22:19.742Z,99574.25
2023-01-09T02:25:11.467Z,99576.28
2023-01-09T02:28:03.962Z,99571.97
2023-01-09T02:30:34.811Z,99568.63
2023-01-09T02:33:18.092Z,99576.03
2023-01-09T02:36:00.872Z,99571.66
2023-01-09T02:38:37.005Z,99567.13
2023-01-09T02:41:19.200Z,99556.16
2023-01-09T02:43:47.532Z,99560.50
2023-01-09T02:46:23.252Z,99548.50
2023-01-09T02:48:54.358Z,99547.38
2023-01-09T02:51:40.895Z,99542.84
2023-01-09T02:54:24.170Z,99538.25
2023-01-09T02:57:10.491Z,99551.69
2023-01-09T03:00:04.202Z,99548.63
2023-01-09T03:02:54.420Z,99550.19
2023-01-09T03:05:30.772Z,99551.59
2023-01-09T03:07:58.631Z,99558.72
2023-01-09T03:10:31.122Z,99555.47
2023-01-09T03:13:02.323Z,99562.47
2023-01-09T03:15:36.812Z,99564.31
2023-01-09T03:18:09.242Z,99552.06
2023-01-09T03:20:39.672Z,99552.72
2023-01-09T03:23:08.785Z,99554.50
2023-01-09T03:25:38.232Z,99553.41
2023-01-09T03:28:09.853Z,99547.16
2023-01-09T03:30:38.092Z,99550.16
2023-01-09T03:33:06.269Z,99557.09
2023-01-09T03:35:34.607Z,99555.59
2023-01-09T03:38:02.575Z,99554.25
2023-01-09T03:40:30.865Z,99555.47
2023-01-09T03:42:58.810Z,99552.81
2023-01-09T03:45:27.178Z,99547.41
2023-01-09T03:47:55.275Z,99543.84
2023-01-09T03:50:23.580Z,99530.28
2023-01-09T03:52:51.622Z,99531.16
2023-01-09T03:55:20.007Z,99524.88
2023-01-09T03:57:47.904Z,99520.16
2023-01-09T04:00:16.500Z,99523.81
2023-01-09T04:02:44.430Z,99525.38
2023-01-09T04:05:13.028Z,99521.47
2023-01-09T04:07:41.063Z,99513.91
2023-01-09T04:10:10.784Z,99517.72
2023-01-09T04:12:38.808Z,99510.47
2023-01-09T04:15:07.654Z,99515.47
2023-01-09T04:17:35.856Z,99511.47
2023-01-09T04:20:05.769Z,99514.16
2023-01-09T04:22:33.798Z,99506.59
2023-01-09T04:25:04.055Z,99497.44
2023-01-09T04:27:32.009Z,99490.25
2023-01-09T04:30:00.841Z,99483.03
2023-01-09T04:32:29.122Z,99476.69
2023-01-09T04:34:58.508Z,99481.56
2023-01-09T04:37:26.477Z,99482.91
2023-01-09T04:39:56.292Z,99475.22
2023-01-09T04:42:24.685Z,99483.13
2023-01-09T04:44:54.442Z,99487.13
2023-01-09T04:47:24.705Z,99481.47
2023-01-09T04:49:53.254Z,99491.47
2023-01-09T04:52:21.295Z,99482.16
2023-01-09T04:54:49.488Z,99476.22
2023-01-09T04:57:18.083Z,99468.16
2023-01-09T04:59:46.698Z,99471.03
2023-01-09T05:02:14.754Z,99476.38
2023-01-09T05:04:43.434Z,99473.47
2023-01-09T05:07:11.378Z,99465.50
2023-01-09T05:09:40.755Z,99471.38
2023-01-09T05:12:08.717Z,99479.03
2023-01-09T05:14:36.955Z,99481.47
2023-01-09T05:17:04.954Z,99485.78
2023-01-09T05:19:34.758Z,99475.81
2023-01-09T05:22:02.667Z,99477.81
2023-01-09T05:24:31.028Z,99485.47
2023-01-09T05:26:59.011Z,99486.03
2023-01-09T05:29:27.276Z,99501.47
2023-01-09T05:31:55.375Z,99496.25
2023-01-09T05:34:25.682Z,99498.13
2023-01-09T05:36:53.668Z,99491.59
2023-01-09T05:39:22.142Z,99488.47
2023-01-09T05:41:50.066Z,99509.50
2023-01-09T05:44:19.375Z,99494.03
2023-01-09T05:46:47.301Z,99488.94
2023-01-09T05:49:15.643Z,99488.94
2023-01-09T05:51:43.524Z,99475.59
2023-01-09T05:54:11.798Z,99490.38
2023-01-09T05:56:39.776Z,99500.91
2023-01-09T05:59:08.036Z,99506.91
2023-01-09T06:01:36.048Z,99501.22
2023-01-09T06:04:06.295Z,99513.81
2023-01-09T06:06:34.154Z,99509.88
2023-01-09T06:09:03.788Z,99498.66
2023-01-09T06:11:31.747Z,99503.78
2023-01-09T06:14:00.144Z,99507.13
2023-01-09T06:16:28.244Z,99497.72
2023-01-09T06:18:57.776Z,99498.91
2023-01-09T06:21:25.685Z,99506.78
2023-01-09T06:23:56.699Z,99498.09
2023-01-09T06:26:26.158Z,99500.44
2023-01-09T06:28:57.411Z,99505.56
2023-01-09T06:31:25.914Z,99501.97
2023-01-09T06:33:54.473Z,99507.53
2023-01-09T06:36:23.548Z,99518.00
2023-01-09T06:38:51.850Z,99516.56
2023-01-09T06:41:19.836Z,99513.03
2023-01-09T06:43:48.774Z,99522.69
2023-01-09T06:46:16.840Z,99512.13
2023-01-09T06:48:46.235Z,99512.25
2023-01-09T06:51:14.147Z,99504.72
2023-01-09T06:53:42.327Z,99500.81
2023-01-09T06:56:10.375Z,99501.91
2023-01-09T06:58:39.774Z,99490.47
2023-01-09T07:01:07.825Z,99484.38
2023-01-09T07:03:36.196Z,99488.25
2023-01-09T07:06:05.181Z,99495.13
2023-01-09T07:08:34.649Z,99488.91
2023-01-09T07:11:02.526Z,99475.59
2023-01-09T07:13:30.775Z,99475.47
2023-01-09T07:15:58.724Z,99477.13
2023-01-09T07:18:26.954Z,99484.38
2023-01-09T07:20:54.893Z,99486.03
2023-01-09T07:23:23.233Z,99487.59
2023-01-09T07:25:52.576Z,99488.69
2023-01-09T07:28:20.814Z,99494.25
2023-01-09T07:30:48.666Z,99499.03
2023-01-09T07:33:17.171Z,99498.72
2023-01-09T07:35:44.999Z,99495.50
2023-01-09T07:38:13.264Z,99492.94
2023-01-09T07:40:41.269Z,99477.22
2023-01-09T07:43:09.484Z,99453.59
2023-01-09T07:45:37.363Z,99460.50
2023-01-09T07:48:07.009Z,99465.81
2023-01-09T07:50:35.543Z,99455.81
2023-01-09T07:53:03.804Z,99453.59
2023-01-09T07:55:31.729Z,99445.25
2023-01-09T07:57:59.931Z,99446.47
2023-01-09T08:00:30.012Z,99449.38
2023-01-09T08:02:59.415Z,99459.47
2023-01-09T08:05:27.408Z,99451.81
2023-01-09T08:07:55.736Z,99443.56
2023-01-09T08:10:23.733Z,99431.59
2023-01-09T08:12:53.103Z,99427.16
2023-01-09T08:15:20.997Z,99437.16
2023-01-09T08:17:49.227Z,99448.56
2023-01-09T08:20:18.453Z,99452.03
2023-01-09T08:22:51.396Z,99454.78
2023-01-09T08:25:19.435Z,99461.56
2023-01-09T08:27:47.828Z,99465.59
2023-01-09T08:30:17.330Z,99474.13
2023-01-09T08:32:50.758Z,99480.91
2023-01-09T08:35:19.111Z,99476.66
2023-01-09T08:37:48.804Z,99464.06
2023-01-09T08:40:17.615Z,99451.81
2023-01-09T08:43:04.526Z,99451.03
2023-01-09T08:45:50.998Z,99441.78
2023-01-09T08:48:19.262Z,99453.00
2023-01-09T08:50:47.325Z,99449.00
2023-01-09T08:53:16.917Z,99451.59
2023-01-09T08:55:44.835Z,99463.38
2023-01-09T08:58:13.249Z,99455.25
2023-01-09T09:00:41.261Z,99452.47
2023-01-09T09:03:11.282Z,99453.78
2023-01-09T09:05:39.323Z,99448.19
2023-01-09T09:08:07.624Z,99461.41
2023-01-09T09:10:35.608Z,99465.56
2023-01-09T09:13:03.933Z,99458.00
2023-01-09T09:15:31.927Z,99469.75
2023-01-09T09:18:05.914Z,99463.75
2023-01-09T09:20:38.583Z,99455.75
2023-01-09T09:27:56.574Z,99449.06
2023-01-09T09:30:25.162Z,99452.25
2023-01-09T09:32:53.074Z,99460.84
2023-01-09T09:35:23.062Z,99453.56
2023-01-09T09:37:56.455Z,99462.81
2023-01-09T09:40:40.648Z,99458.63
2023-01-09T09:44:05.153Z,99457.41
2023-01-09T09:46:54.894Z,99468.72
2023-01-09T09:49:35.202Z,99464.66
2023-01-09T09:52:33.024Z,99461.00
2023-01-09T09:55:06.814Z,99453.28
2023-01-09T09:57:37.520Z,99449.13
2023-01-09T10:00:07.686Z,99442.31
2023-01-09T10:02:42.329Z,99439.84
2023-01-09T10:05:19.682Z,99440.75
2023-01-09T10:07:51.179Z,99443.72
2023-01-09T10:10:38.607Z,99428.22
2023-01-09T10:13:31.849Z,99441.91
2023-01-09T10:16:09.111Z,99440.31
2023-01-09T10:19:16.788Z,99426.78
2023-01-09T10:22:17.185Z,99425.28
2023-01-09T10:25:10.193Z,99435.34
2023-01-09T10:27:53.289Z,99434.31
2023-01-09T10:30:33.487Z,99425.00
2023-01-09T10:33:25.776Z,99442.50
2023-01-09T10:36:15.629Z,99436.09
2023-01-09T10:38:50.342Z,99426.81
2023-01-09T10:41:24.297Z,99419.56
2023-01-09T10:44:04.435Z,99434.91
2023-01-09T10:46:45.232Z,99434.59
2023-01-09T10:49:17.865Z,99442.72
2023-01-09T10:51:51.964Z,99440.28
2023-01-09T10:54:23.838Z,99445.13
2023-01-09T10:56:57.017Z,99442.72
2023-01-09T10:59:25.890Z,99436.94
2023-01-09T11:01:54.772Z,99432.59
2023-01-09T11:04:38.092Z,99439.94
2023-01-09T11:07:18.762Z,99436.59
2023-01-09T11:10:02.446Z,99431.56
2023-01-09T11:12:34.122Z,99439.34
2023-01-09T11:15:17.449Z,99432.00
2023-01-09T11:17:51.324Z,99434.34
2023-01-09T11:20:21.353Z,99431.56
2023-01-09T11:22:55.713Z,99437.78
2023-01-09T11:25:26.561Z,99430.50
2023-01-09T11:28:03.825Z,99431.59
2023-01-09T11:30:36.478Z,99426.03
2023-01-09T11:33:20.405Z,99428.16
2023-01-09T11:36:00.098Z,99415.03
2023-01-09T11:38:29.888Z,99401.28
2023-01-09T11:41:06.833Z,99406.94
2023-01-09T11:43:39.293Z,99389.84
2023-01-09T11:46:11.670Z,99392.25
2023-01-09T11:48:53.855Z,99381.72
2023-01-09T11:51:34.396Z,99380.34
2023-01-09T11:54:25.573Z,99377.19
2023-01-09T11:56:54.795Z,99373.13
2023-01-09T11:59:29.313Z,99370.81
2023-01-09T12:02:34.355Z,99360.53
2023-01-09T12:05:36.643Z,99365.53
2023-01-09T12:08:10.463Z,99364.72
2023-01-09T12:11:16.336Z,99353.28
2023-01-09T12:13:56.695Z,99355.06
2023-01-09T12:16:54.136Z,99352.69
2023-01-09T12:19:40.635Z,99355.41
2023-01-09T12:22:50.231Z,99356.03
2023-01-09T12:25:29.365Z,99347.88
2023-01-09T12:28:33.201Z,99350.81
2023-01-09T12:31:16.012Z,99346.06
2023-01-09T12:33:54.870Z,99347.94
2023-01-09T12:36:36.883Z,99343.75
2023-01-09T12:39:24.409Z,99325.97
2023-01-09T12:42:07.125Z,99331.72
2023-01-09T12:44:58.038Z,99325.19
2023-01-09T12:47:47.090Z,99327.09
2023-01-09T12:50:41.605Z,99317.13
2023-01-09T12:53:34.942Z,99310.34
2023-01-09T12:56:15.860Z,99306.25
2023-01-09T12:58:54.648Z,99296.94
2023-01-09T13:01:29.137Z,99282.16
2023-01-09T13:04:18.619Z,99278.28
2023-01-09T13:06:59.984Z,99268.84
2023-01-09T13:09:40.198Z,99279.81
2023-01-09T13:12:22.297Z,99285.03
2023-01-09T13:15:30.677Z,99280.97
2023-01-09T13:18:12.794Z,99274.81
2023-01-09T13:20:56.795Z,99264.41
2023-01-09T13:23:43.058Z,99262.22
2023-01-09T13:26:17.610Z,99245.97
2023-01-09T13:29:00.049Z,99241.22
2023-01-09T13:31:49.274Z,99233.31
2023-01-09T13:34:24.687Z,99247.75
2023-01-09T13:42:18.974Z,99246.91
2023-01-09T13:42:46.614Z,99240.25
2023-01-09T13:45:17.973Z,99241.06
2023-01-09T13:47:46.352Z,99250.69
2023-01-09T13:50:26.884Z,99242.16
2023-01-09T13:52:54.920Z,99249.44
2023-01-09T13:55:29.172Z,99242.41
2023-01-09T13:58:06.616Z,99243.59
2023-01-09T14:00:38.197Z,99246.47
2023-01-09T14:03:08.779Z,99245.56
2023-01-09T14:05:36.996Z,99259.53
2023-01-09T14:08:32.475Z,99266.88
2023-01-09T14:11:03.702Z,99266.66
2023-01-09T14:13:39.131Z,99268.19
2023-01-09T14:16:16.548Z,99270.19
2023-01-09T14:19:02.191Z,99263.75
2023-01-09T14:21:54.328Z,99265.63
2023-01-09T14:24:28.243Z,99258.22
2023-01-09T14:27:01.771Z,99266.66
2023-01-09T14:29:29.696Z,99269.94
2023-01-09T14:32:30.906Z,99259.13
2023-01-09T14:35:17.850Z,99263.25
2023-01-09T14:37:58.678Z,99268.16
2023-01-09T14:40:26.604Z,99252.22
2023-01-09T14:42:58.473Z,99250.59
2023-01-09T14:45:27.799Z,99262.31
2023-01-09T14:48:01.361Z,99244.50
2023-01-09T14:50:45.182Z,99248.56
2023-01-09T14:53:21.024Z,99247.91
2023-01-09T14:56:00.303Z,99246.75
2023-01-09T14:58:31.112Z,99259.50
2023-01-09T15:01:06.598Z,99256.75
2023-01-09T15:03:44.628Z,99258.91
2023-01-09T15:06:18.412Z,99268.66
2023-01-09T15:08:51.249Z,99267.63
2023-01-09T15:11:19.337Z,99262.94
2023-01-09T15:13:50.748Z,99259.41
2023-01-09T15:16:25.013Z,99248.22
2023-01-09T15:19:07.876Z,99256.38
2023-01-09T15:21:35.924Z,99258.06
2023-01-09T15:24:13.661Z,99251.47
2023-01-09T15:26:41.530Z,99261.06
2023-01-09T15:29:20.789Z,99248.41
2023-01-09T15:31:53.654Z,99249.97
2023-01-09T15:34:25.370Z,99255.09
2023-01-09T15:36:54.803Z,99252.03
2023-01-09T15:39:26.918Z,99249.50
2023-01-09T15:42:13.983Z,99251.88
2023-01-09T15:44:45.018Z,99253.34
2023-01-09T15:47:33.030Z,99258.66
2023-01-09T15:50:04.106Z,99254.75
2023-01-09T15:52:32.157Z,99262.25
2023-01-09T15:55:01.476Z,99261.72
2023-01-09T15:57:34.427Z,99272.47
2023-01-09T16:00:33.576Z,99276.94
2023-01-09T16:03:16.617Z,99267.84
2023-01-09T16:06:10.761Z,99290.69
2023-01-09T16:08:43.181Z,99302.81
2023-01-09T16:11:26.551Z,99301.28
2023-01-09T16:13:57.450Z,99303.06
2023-01-09T16:16:33.023Z,99310.03
2023-01-09T16:19:01.120Z,99303.34
2023-01-09T16:21:35.018Z,99307.38
2023-01-09T16:24:14.921Z,99327.22
2023-01-09T16:26:44.567Z,99327.94
2023-01-09T16:29:33.830Z,99332.69
2023-01-09T16:32:03.790Z,99333.13
2023-01-09T16:34:35.353Z,99337.53
2023-01-09T16:37:05.830Z,99333.44
2023-01-09T16:39:33.896Z,99327.78
2023-01-09T16:42:20.756Z,99345.44
2023-01-09T16:44:48.839Z,99351.75
2023-01-09T16:47:17.038Z,99349.81
2023-01-09T16:49:45.116Z,99363.72
2023-01-09T16:52:17.693Z,99362.06
2023-01-09T16:54:47.633Z,99361.72
2023-01-09T16:57:21.354Z,99372.94
2023-01-09T16:59:49.640Z,99363.69
2023-01-09T17:02:21.035Z,99379.66
2023-01-09T17:04:49.207Z,99381.59
2023-01-09T17:07:20.152Z,99391.31
2023-01-09T17:09:48.785Z,99388.38
2023-01-09T17:12:20.141Z,99391.94
2023-01-09T17:14:49.867Z,99399.06
2023-01-09T17:17:18.549Z,99404.97
2023-01-09T17:19:46.986Z,99414.94
2023-01-09T17:22:15.539Z,99421.44
2023-01-09T17:25:02.228Z,99429.38
2023-01-09T17:27:54.530Z,99427.41
2023-01-09T17:30:23.158Z,99428.16
2023-01-09T17:32:51.526Z,99427.78
2023-01-09T17:35:19.483Z,99439.31
2023-01-09T17:37:47.760Z,99439.84
2023-01-09T17:40:22.451Z,99436.56
2023-01-09T17:42:50.728Z,99445.50
2023-01-09T17:45:18.722Z,99450.63
2023-01-09T17:47:47.064Z,99449.22
2023-01-09T17:50:20.197Z,99446.84
2023-01-09T17:52:49.203Z,99457.44
2023-01-09T17:55:17.144Z,99469.25
2023-01-09T17:57:45.663Z,99469.09
2023-01-09T18:00:24.995Z,99478.81
2023-01-09T18:02:53.961Z,99484.75
2023-01-09T18:05:23.393Z,99480.56
2023-01-09T18:07:52.124Z,99483.13
2023-01-09T18:10:23.818Z,99493.41
2023-01-09T18:12:52.756Z,99498.22
2023-01-09T18:15:23.506Z,99501.88
2023-01-09T18:17:52.984Z,99510.91
2023-01-09T18:20:20.836Z,99508.66
2023-01-09T18:22:49.885Z,99512.53
2023-01-09T18:25:18.393Z,99516.78
2023-01-09T18:27:46.847Z,99522.13
2023-01-09T18:30:14.960Z,99525.31
2023-01-09T18:32:43.217Z,99532.91
2023-01-09T18:35:11.395Z,99549.19
2023-01-09T18:37:39.665Z,99547.28
2023-01-09T18:40:08.913Z,99558.84
2023-01-09T18:42:37.258Z,99557.38
2023-01-09T18:45:05.808Z,99552.28
2023-01-09T18:47:34.228Z,99557.84
2023-01-09T18:50:02.199Z,99558.06
2023-01-09T18:52:30.476Z,99569.41
2023-01-09T18:54:58.476Z,99585.41
2023-01-09T18:57:26.843Z,99580.53
2023-01-09T18:59:54.684Z,99589.38
2023-01-09T19:02:25.517Z,99597.53
2023-01-09T19:04:53.716Z,99596.88
2023-01-09T19:07:22.090Z,99607.97
2023-01-09T19:09:50.943Z,99609.38
2023-01-09T19:12:18.983Z,99615.19
2023-01-09T19:14:47.391Z,99623.31
2023-01-09T19:17:15.790Z,99622.72
2023-01-09T19:19:44.302Z,99618.66
2023-01-09T19:22:12.310Z,99622.59
2023-01-09T19:24:41.803Z,99622.72
2023-01-09T19:27:17.181Z,99631.00
2023-01-09T19:29:45.631Z,99621.31
2023-01-09T19:32:14.053Z,99624.91
2023-01-09T19:34:42.336Z,99621.16
2023-01-09T19:37:10.575Z,99619.78
2023-01-09T19:39:38.949Z,99628.06
2023-01-09T19:42:06.985Z,99635.03
2023-01-09T19:44:35.262Z,99633.28
2023-01-09T19:47:03.250Z,99631.84
2023-01-09T19:49:32.576Z,99635.97
2023-01-09T19:52:00.944Z,99638.53
2023-01-09T19:54:30.558Z,99634.66
2023-01-09T19:56:59.031Z,99637.72
2023-01-09T19:59:27.314Z,99645.84
2023-01-09T20:01:55.706Z,99646.84
2023-01-09T20:04:26.991Z,99650.41
2023-01-09T20:06:54.992Z,99657.47
2023-01-09T20:09:26.170Z,99658.59
2023-01-09T20:11:54.079Z,99657.28
2023-01-09T20:14:22.879Z,99663.41
2023-01-09T20:16:54.242Z,99668.25
2023-01-09T20:19:22.732Z,99670.47
2023-01-09T20:21:50.807Z,99671.69
2023-01-09T20:24:20.421Z,99670.31
2023-01-09T20:26:48.479Z,99675.72
2023-01-09T20:29:17.214Z,99677.69
2023-01-09T20:31:45.570Z,99677.31
2023-01-09T20:34:15.146Z,99686.75
2023-01-09T20:36:43.765Z,99688.94
2023-01-09T20:39:14.438Z,99689.31
2023-01-09T20:41:42.699Z,99692.97
2023-01-09T20:44:14.182Z,99699.47
2023-01-09T20:46:47.797Z,99698.88
2023-01-09T20:49:21.142Z,99712.69
2023-01-09T20:51:52.891Z,99712.66
2023-01-09T20:54:22.742Z,99722.84
2023-01-09T20:56:51.468Z,99719.09
2023-01-09T20:59:21.084Z,99722.47
2023-01-09T21:01:49.743Z,99734.50
2023-01-09T21:04:19.513Z,99738.50
2023-01-09T21:06:49.785Z,99748.38
2023-01-09T21:09:18.928Z,99748.84
2023-01-09T21:11:46.823Z,99752.00
2023-01-09T21:14:15.029Z,99753.88
2023-01-09T21:16:45.533Z,99761.72
2023-01-09T21:19:19.928Z,99766.91
2023-01-09T21:21:47.840Z,99774.72
2023-01-09T21:24:16.213Z,99767.06
2023-01-09T21:26:44.091Z,99767.53
2023-01-09T21:29:13.266Z,99775.97
2023-01-09T21:31:41.543Z,99783.16
2023-01-09T21:34:14.784Z,99780.03
2023-01-09T21:36:45.276Z,99781.75
2023-01-09T21:39:19.281Z,99791.75
2023-01-09T21:42:22.790Z,99795.78
2023-01-09T21:45:09.908Z,99798.59
2023-01-09T21:47:37.857Z,99802.97
2023-01-09T21:50:08.018Z,99805.50
2023-01-09T21:52:37.379Z,99813.16
2023-01-09T21:55:07.203Z,99814.75
2023-01-09T21:57:35.167Z,99819.56
2023-01-09T22:00:04.366Z,99825.31
2023-01-09T22:02:41.354Z,99829.56
2023-01-09T22:05:09.793Z,99841.72
2023-01-09T22:07:37.859Z,99847.59
2023-01-09T22:10:06.905Z,99850.75
2023-01-09T22:12:35.174Z,99850.63
2023-01-09T22:15:04.115Z,99855.03
2023-01-09T22:17:32.099Z,99858.31
2023-01-09T22:20:00.420Z,99867.41
2023-01-09T22:22:29.033Z,99874.13
2023-01-09T22:24:59.479Z,99885.53
2023-01-09T22:27:27.624Z,99890.25
2023-01-09T22:29:55.855Z,99884.78
2023-01-09T22:32:23.756Z,99885.44
2023-01-09T22:34:53.089Z,99897.00
2023-01-09T22:37:21.061Z,99893.38
2023-01-09T22:39:49.360Z,99899.50
2023-01-09T22:42:17.313Z,99896.06
2023-01-09T22:44:46.722Z,99892.16
2023-01-09T22:47:14.757Z,99901.69
2023-01-09T22:49:52.213Z,99899.50
2023-01-09T22:52:21.906Z,99899.63
2023-01-09T22:54:50.787Z,99893.84
2023-01-09T22:57:18.805Z,99907.16
2023-01-09T22:59:48.076Z,99903.69
2023-01-09T23:02:16.151Z,99912.56
2023-01-09T23:04:44.669Z,99910.41
2023-01-09T23:07:12.794Z,99914.66
2023-01-09T23:09:41.188Z,99910.25
2023-01-09T23:12:10.536Z,99907.91
2023-01-09T23:14:39.270Z,99911.00
2023-01-09T23:17:10.700Z,99921.34
2023-01-09T23:19:40.666Z,99907.72
2023-01-09T23:22:08.666Z,99910.69
2023-01-09T23:24:38.237Z,99916.09
2023-01-09T23:27:07.863Z,99917.84
2023-01-09T23:29:39.645Z,99925.13
2023-01-09T23:32:07.868Z,99926.50
2023-01-09T23:34:37.310Z,99921.00
2023-01-09T23:37:09.215Z,99922.25
2023-01-09T23:39:37.714Z,99927.25
2023-01-09T23:42:24.358Z,99926.75
2023-01-09T23:44:53.691Z,99922.22
2023-01-09T23:47:21.734Z,99923.69
2023-01-09T23:49:51.352Z,99921.84
2023-01-09T23:52:19.295Z,99928.31
2023-01-09T23:54:47.563Z,99917.03
2023-01-09T23:57:16.367Z,99925.66
2023-01-09T23:59:44.646Z,99926.94
